createdAt,value
2023-01-13T00:01:13.010Z,-2.90
2023-01-13T00:03:40.141Z,-2.91
2023-01-13T02:09:06.146Z,-4.74
2023-01-13T02:11:53.743Z,-4.27
2023-01-13T02:14:24.695Z,-4.04
2023-01-13T02:17:15.942Z,-3.90
2023-01-13T02:20:02.985Z,-3.73
2023-01-13T02:22:51.840Z,-3.60
2023-01-13T02:25:24.499Z,-3.50
2023-01-13T02:28:05.201Z,-3.42
2023-01-13T02:30:54.490Z,-3.31
2023-01-13T02:33:36.545Z,-3.20
2023-01-13T02:36:22.564Z,-3.15
2023-01-13T02:39:02.978Z,-3.10
2023-01-13T02:41:56.943Z,-3.09
2023-01-13T02:44:27.338Z,-3.04
2023-01-13T02:47:06.212Z,-2.99
2023-01-13T02:49:40.765Z,-2.94
2023-01-13T02:52:11.390Z,-2.93
2023-01-13T02:54:38.939Z,-2.92
2023-01-13T02:57:08.239Z,-2.89
2023-01-13T02:59:35.074Z,-2.87
2023-01-13T03:02:02.848Z,-2.82
2023-01-13T03:04:45.813Z,-2.74
2023-01-13T03:07:38.574Z,-2.69
2023-01-13T03:10:11.169Z,-2.71
2023-01-13T03:12:48.677Z,-2.72
2023-01-13T03:15:15.835Z,-2.69
2023-01-13T03:17:48.354Z,-2.67
2023-01-13T03:20:18.403Z,-2.66
2023-01-13T03:22:59.189Z,-2.68
2023-01-13T03:25:28.906Z,-2.70
2023-01-13T03:28:04.861Z,-2.70
2023-01-13T03:30:44.156Z,-2.65
2023-01-13T03:33:12.631Z,-2.60
2023-01-13T03:35:41.473Z,-2.60
2023-01-13T03:38:33.409Z,-2.61
2023-01-13T03:41:25.494Z,-2.61
2023-01-13T03:44:14.383Z,-2.59
2023-01-13T03:47:00.294Z,-2.53
2023-01-13T03:49:35.597Z,-2.55
2023-01-13T03:52:05.639Z,-2.58
2023-01-13T03:54:34.142Z,-2.63
2023-01-13T03:57:07.035Z,-2.59
2023-01-13T03:59:38.318Z,-2.53
2023-01-13T04:02:10.339Z,-2.49
2023-01-13T04:04:41.393Z,-2.47
2023-01-13T04:07:40.596Z,-2.50
2023-01-13T04:10:08.880Z,-2.54
2023-01-13T04:13:00.607Z,-2.55
2023-01-13T04:15:36.123Z,-2.56
2023-01-13T04:18:30.082Z,-2.56
2023-01-13T04:20:58.646Z,-2.57
2023-01-13T04:23:25.440Z,-2.56
2023-01-13T04:25:52.853Z,-2.56
2023-01-13T04:28:20.099Z,-2.55
2023-01-13T04:30:47.119Z,-2.55
2023-01-13T04:33:15.544Z,-2.53
2023-01-13T04:35:43.115Z,-2.50
2023-01-13T04:38:12.048Z,-2.52
2023-01-13T04:40:39.480Z,-2.50
2023-01-13T04:43:06.396Z,-2.48
2023-01-13T04:45:33.704Z,-2.46
2023-01-13T04:48:00.901Z,-2.45
2023-01-13T04:50:27.788Z,-2.47
2023-01-13T04:52:54.626Z,-2.51
2023-01-13T04:55:22.259Z,-2.49
2023-01-13T04:57:49.027Z,-2.39
2023-01-13T05:00:18.386Z,-2.40
2023-01-13T05:02:45.380Z,-2.41
2023-01-13T05:05:12.247Z,-2.43
2023-01-13T05:07:41.355Z,-2.41
2023-01-13T05:10:09.117Z,-2.36
2023-01-13T05:12:54.477Z,-2.35
2023-01-13T05:15:40.058Z,-2.41
2023-01-13T05:18:07.392Z,-2.43
2023-01-13T05:20:34.258Z,-2.46
2023-01-13T05:23:19.782Z,-2.46
2023-01-13T05:25:47.251Z,-2.42
2023-01-13T05:28:14.478Z,-2.36
2023-01-13T05:30:45.676Z,-2.36
2023-01-13T05:33:14.147Z,-2.36
2023-01-13T05:35:42.060Z,-2.40
2023-01-13T05:38:09.571Z,-2.38
2023-01-13T05:40:59.555Z,-2.30
2023-01-13T05:43:26.656Z,-2.28
2023-01-13T05:45:57.472Z,-2.27
2023-01-13T05:48:38.653Z,-2.29
2023-01-13T05:51:06.632Z,-2.24
2023-01-13T05:53:34.613Z,-2.16
2023-01-13T05:56:05.270Z,-2.14
2023-01-13T05:58:32.814Z,-2.18
2023-01-13T06:01:04.612Z,-2.24
2023-01-13T06:03:32.874Z,-2.24
2023-01-13T06:24:18.162Z,-3.47
2023-01-13T06:26:46.189Z,-3.06
2023-01-13T06:29:14.518Z,-2.88
2023-01-13T06:31:41.637Z,-2.76
2023-01-13T06:34:13.402Z,-2.70
2023-01-13T06:36:43.063Z,-2.65
2023-01-13T06:39:10.394Z,-2.62
2023-01-13T06:42:14.867Z,-2.53
2023-01-13T06:44:42.745Z,-2.41
2023-01-13T06:47:09.792Z,-2.37
2023-01-13T06:49:36.864Z,-2.35
2023-01-13T06:52:07.237Z,-2.31
2023-01-13T06:54:34.268Z,-2.24
2023-01-13T06:57:02.996Z,-2.11
2023-01-13T06:59:33.924Z,-2.07
2023-01-13T07:02:01.569Z,-2.06
2023-01-13T07:04:28.951Z,-2.06
2023-01-13T07:06:56.354Z,-2.06
2023-01-13T07:09:24.466Z,-2.00
2023-01-13T07:11:52.322Z,-1.91
2023-01-13T07:14:38.519Z,-1.88
2023-01-13T07:17:05.637Z,-1.91
2023-01-13T07:19:32.979Z,-1.95
2023-01-13T07:22:00.746Z,-1.97
2023-01-13T07:24:28.410Z,-1.89
2023-01-13T07:26:55.508Z,-1.83
2023-01-13T07:29:22.600Z,-1.83
2023-01-13T07:31:50.283Z,-1.84
2023-01-13T07:34:17.662Z,-1.82
2023-01-13T07:36:44.666Z,-1.76
2023-01-13T07:39:11.766Z,-1.67
2023-01-13T07:41:57.913Z,-1.62
2023-01-13T07:44:27.235Z,-1.59
2023-01-13T07:46:54.389Z,-1.57
2023-01-13T07:49:21.263Z,-1.58
2023-01-13T07:51:49.047Z,-1.53
2023-01-13T07:54:16.125Z,-1.45
2023-01-13T07:56:44.107Z,-1.46
2023-01-13T07:59:11.304Z,-1.47
2023-01-13T08:01:38.548Z,-1.53
2023-01-13T08:04:05.551Z,-1.56
2023-01-13T08:06:33.628Z,-1.51
2023-01-13T08:09:00.855Z,-1.48
2023-01-13T08:12:52.331Z,-1.45
2023-01-13T08:15:23.865Z,-1.46
2023-01-13T08:17:50.904Z,-1.46
2023-01-13T08:20:18.237Z,-1.40
2023-01-13T10:36:12.465Z,-2.89
2023-01-13T10:38:44.564Z,-2.38
2023-01-13T10:41:20.725Z,-2.04
2023-01-13T10:44:09.494Z,-1.76
2023-01-13T10:46:51.509Z,-1.52
2023-01-13T10:49:32.844Z,-1.36
2023-01-13T10:52:00.907Z,-1.29
2023-01-13T10:54:28.114Z,-1.21
2023-01-13T10:57:23.722Z,-1.19
2023-01-13T10:59:54.037Z,-1.17
2023-01-13T11:02:32.363Z,-1.20
2023-01-13T11:05:21.609Z,-1.10
2023-01-13T11:07:58.977Z,-1.00
2023-01-13T11:10:31.453Z,-0.96
2023-01-13T11:13:00.737Z,-0.99
2023-01-13T11:15:39.553Z,-1.01
2023-01-13T11:18:22.649Z,-1.01
2023-01-13T11:20:49.917Z,-0.96
2023-01-13T11:23:36.506Z,-0.96
2023-01-13T11:26:08.368Z,-0.92
2023-01-13T11:29:19.213Z,-0.83
2023-01-13T11:31:52.399Z,-0.78
2023-01-13T11:34:31.354Z,-0.81
2023-01-13T11:37:08.177Z,-0.81
2023-01-13T11:39:45.705Z,-0.76
2023-01-13T11:42:22.630Z,-0.74
2023-01-13T11:45:08.190Z,-0.77
2023-01-13T11:47:36.157Z,-0.76
2023-01-13T11:50:06.611Z,-0.68
2023-01-13T11:53:17.761Z,-0.62
2023-01-13T11:56:27.964Z,-0.61
2023-01-13T11:59:23.454Z,-0.60
2023-01-13T12:01:54.028Z,-0.60
2023-01-13T12:04:41.674Z,-0.61
2023-01-13T12:07:17.289Z,-0.67
2023-01-13T12:09:56.830Z,-0.76
2023-01-13T12:12:43.927Z,-0.80
2023-01-13T12:15:22.816Z,-0.81
2023-01-13T12:18:21.771Z,-0.76
2023-01-13T12:20:55.739Z,-0.75
2023-01-13T12:23:54.070Z,-0.72
2023-01-13T12:26:21.613Z,-0.71
2023-01-13T12:28:52.931Z,-0.72
2023-01-13T12:31:21.041Z,-0.71
2023-01-13T12:33:52.525Z,-0.72
2023-01-13T12:36:42.813Z,-0.73
2023-01-13T12:39:39.573Z,-0.73
2023-01-13T12:42:27.966Z,-0.75
2023-01-13T12:45:26.923Z,-0.77
2023-01-13T12:47:55.336Z,-0.75
2023-01-13T12:50:22.640Z,-0.69
2023-01-13T12:52:50.763Z,-0.62
2023-01-13T12:55:20.620Z,-0.62
2023-01-13T12:58:12.558Z,-0.65
2023-01-13T13:00:40.041Z,-0.69
2023-01-13T13:03:11.584Z,-0.67
2023-01-13T13:06:09.952Z,-0.60
2023-01-13T13:08:50.598Z,-0.54
2023-01-13T13:11:53.525Z,-0.52
2023-01-13T13:14:40.094Z,-0.53
2023-01-13T13:17:29.657Z,-0.58
2023-01-13T13:19:57.980Z,-0.53
2023-01-13T13:22:35.400Z,-0.45
2023-01-13T13:25:03.054Z,-0.43
2023-01-13T13:27:50.440Z,-0.44
2023-01-13T13:30:28.917Z,-0.46
2023-01-13T13:33:27.751Z,-0.53
2023-01-13T13:36:04.355Z,-0.56
2023-01-13T13:39:15.140Z,-0.50
2023-01-13T13:42:02.674Z,-0.39
2023-01-13T13:45:02.199Z,-0.35
2023-01-13T13:47:38.578Z,-0.37
2023-01-13T13:50:15.312Z,-0.38
2023-01-13T13:52:54.536Z,-0.38
2023-01-13T13:55:26.183Z,-0.33
2023-01-13T13:57:55.075Z,-0.26
2023-01-13T14:00:26.747Z,-0.23
2023-01-13T14:02:58.847Z,-0.23
2023-01-13T14:05:36.428Z,-0.23
2023-01-13T14:08:13.832Z,-0.24
2023-01-13T14:10:42.093Z,-0.20
2023-01-13T14:13:26.023Z,-0.14
2023-01-13T14:16:08.619Z,-0.10
2023-01-13T14:18:47.884Z,-0.09
2023-01-13T14:21:26.810Z,-0.06
2023-01-13T14:23:55.928Z,-0.07
2023-01-13T14:26:32.029Z,-0.07
2023-01-13T14:29:33.703Z,-0.07
2023-01-13T19:50:35.623Z,-3.41
2023-01-13T19:53:02.739Z,-2.89
2023-01-13T19:55:31.982Z,-2.67
2023-01-13T19:57:59.178Z,-2.50
2023-01-13T20:00:26.405Z,-2.35
2023-01-13T20:02:53.583Z,-2.24
2023-01-13T20:05:22.711Z,-2.17
2023-01-13T20:07:50.174Z,-2.12
2023-01-13T20:10:18.647Z,-2.05
2023-01-13T20:12:45.798Z,-1.97
2023-01-13T20:15:13.030Z,-1.87
2023-01-13T20:17:41.724Z,-1.79
2023-01-13T20:20:10.229Z,-1.77
2023-01-13T20:22:38.766Z,-1.76
2023-01-13T20:25:06.421Z,-1.71
2023-01-13T20:27:33.611Z,-1.62
2023-01-13T20:30:00.824Z,-1.65
2023-01-13T20:32:27.930Z,-1.62
2023-01-13T20:34:55.117Z,-1.62
2023-01-13T20:37:23.009Z,-1.57
2023-01-13T20:39:50.209Z,-1.51
2023-01-13T20:42:29.614Z,-1.47
2023-01-13T20:44:57.407Z,-1.45
2023-01-13T20:47:24.743Z,-1.48
2023-01-13T20:49:52.159Z,-1.51
2023-01-13T20:52:19.650Z,-1.51
2023-01-13T20:54:46.669Z,-1.45
2023-01-13T20:57:13.845Z,-1.42
2023-01-13T20:59:40.873Z,-1.44
2023-01-13T21:02:12.634Z,-1.49
2023-01-13T21:04:40.019Z,-1.43
2023-01-13T21:07:07.036Z,-1.36
2023-01-13T21:09:34.544Z,-1.37
2023-01-13T21:12:20.208Z,-1.42
2023-01-13T21:15:06.126Z,-1.43
2023-01-13T21:17:52.045Z,-1.44
2023-01-13T21:20:19.111Z,-1.36
2023-01-13T21:22:47.167Z,-1.35
2023-01-13T21:25:15.349Z,-1.38
2023-01-13T21:27:44.198Z,-1.43
2023-01-13T21:30:15.148Z,-1.38
2023-01-13T21:32:43.298Z,-1.33
2023-01-13T21:35:10.842Z,-1.32
2023-01-13T21:37:38.426Z,-1.33
2023-01-13T21:40:07.211Z,-1.40
2023-01-13T21:42:53.085Z,-1.42
2023-01-13T21:45:38.947Z,-1.41
2023-01-13T21:48:07.341Z,-1.40
2023-01-13T21:50:34.559Z,-1.43
2023-01-13T21:53:02.102Z,-1.46
